sensor_id;sensor_type;location;lat;lon;timestamp;temperature;humidity
52451;DHT22;38366;53.176;6.540;2022-08-11T00:01:24;18.60;99.90
52451;DHT22;38366;53.176;6.540;2022-08-11T00:03:55;18.60;99.90
52451;DHT22;38366;53.176;6.540;2022-08-11T00:06:29;18.60;99.90
52451;DHT22;38366;53.176;6.540;2022-08-11T00:08:56;18.50;99.90
52451;DHT22;38366;53.176;6.540;2022-08-11T00:11:34;18.50;99.90
52451;DHT22;38366;53.176;6.540;2022-08-11T00:14:02;18.50;99.90
52451;DHT22;38366;53.176;6.540;2022-08-11T00:16:28;18.50;99.90
52451;DHT22;38366;53.176;6.540;2022-08-11T00:18:55;18.40;99.90
52451;DHT22;38366;53.176;6.540;2022-08-11T00:21:22;18.50;99.90
52451;DHT22;38366;53.176;6.540;2022-08-11T00:23:59;18.40;99.90
52451;DHT22;38366;53.176;6.540;2022-08-11T00:26:25;18.40;99.90
52451;DHT22;38366;53.176;6.540;2022-08-11T00:28:52;18.40;99.90
52451;DHT22;38366;53.176;6.540;2022-08-11T00:31:31;18.40;99.90
52451;DHT22;38366;53.176;6.540;2022-08-11T00:33:59;18.40;99.90
52451;DHT22;38366;53.176;6.540;2022-08-11T00:36:29;18.40;99.90
52451;DHT22;38366;53.176;6.540;2022-08-11T00:39:03;18.30;99.90
52451;DHT22;38366;53.176;6.540;2022-08-11T00:44:36;18.20;99.90
52451;DHT22;38366;53.176;6.540;2022-08-11T00:47:23;18.20;99.90
52451;DHT22;38366;53.176;6.540;2022-08-11T00:55:41;18.20;99.90
52451;DHT22;38366;53.176;6.540;2022-08-11T01:10:13;18.00;99.90
52451;DHT22;38366;53.176;6.540;2022-08-11T01:13:14;18.00;99.90
52451;DHT22;38366;53.176;6.540;2022-08-11T01:27:43;18.00;99.90
52451;DHT22;38366;53.176;6.540;2022-08-11T01:36:38;17.90;99.90
52451;DHT22;38366;53.176;6.540;2022-08-11T01:39:45;17.90;99.90
52451;DHT22;38366;53.176;6.540;2022-08-11T01:42:28;17.80;99.90
52451;DHT22;38366;53.176;6.540;2022-08-11T01:45:36;17.80;99.90
52451;DHT22;38366;53.176;6.540;2022-08-11T01:51:00;17.70;99.90
52451;DHT22;38366;53.176;6.540;2022-08-11T02:04:46;17.60;99.90
52451;DHT22;38366;53.176;6.540;2022-08-11T02:10:25;17.60;99.90
52451;DHT22;38366;53.176;6.540;2022-08-11T02:14:11;17.50;99.90
52451;DHT22;38366;53.176;6.540;2022-08-11T02:16:47;17.50;99.90
52451;DHT22;38366;53.176;6.540;2022-08-11T02:22:31;17.50;99.90
52451;DHT22;38366;53.176;6.540;2022-08-11T02:25:30;17.40;99.90
52451;DHT22;38366;53.176;6.540;2022-08-11T02:28:18;17.40;99.90
52451;DHT22;38366;53.176;6.540;2022-08-11T02:31:12;17.40;99.90
52451;DHT22;38366;53.176;6.540;2022-08-11T02:34:23;17.40;99.90
52451;DHT22;38366;53.176;6.540;2022-08-11T02:37:23;17.40;99.90
52451;DHT22;38366;53.176;6.540;2022-08-11T02:45:38;17.40;99.90
52451;DHT22;38366;53.176;6.540;2022-08-11T02:54:25;17.30;99.90
52451;DHT22;38366;53.176;6.540;2022-08-11T03:13:33;17.30;99.90
52451;DHT22;38366;53.176;6.540;2022-08-11T03:20:04;17.20;99.90
52451;DHT22;38366;53.176;6.540;2022-08-11T03:22:56;17.20;99.90
52451;DHT22;38366;53.176;6.540;2022-08-11T03:25:33;17.30;99.90
52451;DHT22;38366;53.176;6.540;2022-08-11T03:28:05;17.20;99.90
52451;DHT22;38366;53.176;6.540;2022-08-11T03:31:00;17.30;99.90
52451;DHT22;38366;53.176;6.540;2022-08-11T03:33:59;17.30;99.90
52451;DHT22;38366;53.176;6.540;2022-08-11T03:41:52;17.20;99.90
52451;DHT22;38366;53.176;6.540;2022-08-11T04:06:41;17.10;99.90
52451;DHT22;38366;53.176;6.540;2022-08-11T04:09:39;17.10;99.90
52451;DHT22;38366;53.176;6.540;2022-08-11T04:12:28;17.10;99.90
52451;DHT22;38366;53.176;6.540;2022-08-11T04:24:31;17.10;99.90
52451;DHT22;38366;53.176;6.540;2022-08-11T04:27:11;17.10;99.90
52451;DHT22;38366;53.176;6.540;2022-08-11T04:32:43;17.10;99.90
52451;DHT22;38366;53.176;6.540;2022-08-11T04:35:25;17.10;99.90
52451;DHT22;38366;53.176;6.540;2022-08-11T04:43:43;17.10;99.90
52451;DHT22;38366;53.176;6.540;2022-08-11T05:05:27;17.10;99.90
52451;DHT22;38366;53.176;6.540;2022-08-11T05:13:28;17.10;99.90
52451;DHT22;38366;53.176;6.540;2022-08-11T05:16:16;17.10;99.90
52451;DHT22;38366;53.176;6.540;2022-08-11T05:19:02;17.20;99.90
52451;DHT22;38366;53.176;6.540;2022-08-11T05:21:54;17.20;99.90
52451;DHT22;38366;53.176;6.540;2022-08-11T05:24:46;17.20;99.90
52451;DHT22;38366;53.176;6.540;2022-08-11T05:30:41;17.30;99.90
52451;DHT22;38366;53.176;6.540;2022-08-11T05:33:35;17.40;99.90
52451;DHT22;38366;53.176;6.540;2022-08-11T05:38:53;17.50;99.90
52451;DHT22;38366;53.176;6.540;2022-08-11T05:41:39;17.60;99.90
52451;DHT22;38366;53.176;6.540;2022-08-11T05:44:26;17.70;99.90
52451;DHT22;38366;53.176;6.540;2022-08-11T05:47:23;17.80;99.90
52451;DHT22;38366;53.176;6.540;2022-08-11T05:50:10;18.00;99.90
52451;DHT22;38366;53.176;6.540;2022-08-11T05:52:55;18.10;99.90
52451;DHT22;38366;53.176;6.540;2022-08-11T05:55:41;18.30;99.90
52451;DHT22;38366;53.176;6.540;2022-08-11T05:58:35;18.40;99.90
52451;DHT22;38366;53.176;6.540;2022-08-11T06:01:01;18.50;99.90
52451;DHT22;38366;53.176;6.540;2022-08-11T06:03:29;18.70;99.90
52451;DHT22;38366;53.176;6.540;2022-08-11T06:05:57;18.80;99.90
52451;DHT22;38366;53.176;6.540;2022-08-11T06:08:28;18.90;99.90
52451;DHT22;38366;53.176;6.540;2022-08-11T06:10:59;19.10;99.90
52451;DHT22;38366;53.176;6.540;2022-08-11T06:13:26;19.10;99.90
52451;DHT22;38366;53.176;6.540;2022-08-11T06:15:52;19.20;99.90
52451;DHT22;38366;53.176;6.540;2022-08-11T06:18:20;19.40;99.90
52451;DHT22;38366;53.176;6.540;2022-08-11T06:20:52;19.50;99.90
52451;DHT22;38366;53.176;6.540;2022-08-11T06:23:21;19.60;99.90
52451;DHT22;38366;53.176;6.540;2022-08-11T06:25:52;19.80;99.90
52451;DHT22;38366;53.176;6.540;2022-08-11T06:28:30;20.20;99.90
52451;DHT22;38366;53.176;6.540;2022-08-11T06:30:56;20.80;99.90
52451;DHT22;38366;53.176;6.540;2022-08-11T06:33:32;21.30;99.90
52451;DHT22;38366;53.176;6.540;2022-08-11T06:41:25;22.70;99.90
52451;DHT22;38366;53.176;6.540;2022-08-11T06:46:40;23.40;99.90
52451;DHT22;38366;53.176;6.540;2022-08-11T06:49:12;23.60;99.90
52451;DHT22;38366;53.176;6.540;2022-08-11T06:52:03;23.70;99.90
52451;DHT22;38366;53.176;6.540;2022-08-11T06:54:47;23.90;99.90
52451;DHT22;38366;53.176;6.540;2022-08-11T06:57:14;24.20;99.90
52451;DHT22;38366;53.176;6.540;2022-08-11T07:00:03;24.40;99.90
52451;DHT22;38366;53.176;6.540;2022-08-11T07:02:51;24.50;99.90
52451;DHT22;38366;53.176;6.540;2022-08-11T07:05:50;24.70;99.90
52451;DHT22;38366;53.176;6.540;2022-08-11T07:14:51;25.20;99.90
52451;DHT22;38366;53.176;6.540;2022-08-11T07:17:49;25.30;99.90
52451;DHT22;38366;53.176;6.540;2022-08-11T07:20:37;25.60;99.90
52451;DHT22;38366;53.176;6.540;2022-08-11T07:23:22;25.60;99.90
52451;DHT22;38366;53.176;6.540;2022-08-11T07:26:07;25.80;99.90
52451;DHT22;38366;53.176;6.540;2022-08-11T07:28:54;25.80;99.90
52451;DHT22;38366;53.176;6.540;2022-08-11T07:31:50;25.50;99.90
52451;DHT22;38366;53.176;6.540;2022-08-11T07:37:03;26.20;99.90
52451;DHT22;38366;53.176;6.540;2022-08-11T07:39:35;26.10;99.90
52451;DHT22;38366;53.176;6.540;2022-08-11T07:42:11;26.30;99.90
52451;DHT22;38366;53.176;6.540;2022-08-11T07:44:40;26.40;99.90
52451;DHT22;38366;53.176;6.540;2022-08-11T07:47:25;26.50;99.90
52451;DHT22;38366;53.176;6.540;2022-08-11T07:50:10;26.60;99.90
52451;DHT22;38366;53.176;6.540;2022-08-11T07:52:57;27.00;99.90
52451;DHT22;38366;53.176;6.540;2022-08-11T07:55:24;27.20;99.90
52451;DHT22;38366;53.176;6.540;2022-08-11T07:57:51;27.30;99.90
52451;DHT22;38366;53.176;6.540;2022-08-11T08:03:48;27.20;99.90
52451;DHT22;38366;53.176;6.540;2022-08-11T08:06:33;27.30;99.90
52451;DHT22;38366;53.176;6.540;2022-08-11T08:09:19;27.20;99.90
52451;DHT22;38366;53.176;6.540;2022-08-11T08:12:04;27.70;99.90
52451;DHT22;38366;53.176;6.540;2022-08-11T08:14:51;27.80;99.90
52451;DHT22;38366;53.176;6.540;2022-08-11T08:17:36;27.90;99.90
52451;DHT22;38366;53.176;6.540;2022-08-11T08:20:24;28.20;99.90
52451;DHT22;38366;53.176;6.540;2022-08-11T08:22:53;28.30;99.80
52451;DHT22;38366;53.176;6.540;2022-08-11T08:25:23;28.60;99.90
52451;DHT22;38366;53.176;6.540;2022-08-11T08:27:50;28.70;99.90
52451;DHT22;38366;53.176;6.540;2022-08-11T08:30:16;29.00;99.60
52451;DHT22;38366;53.176;6.540;2022-08-11T08:33:01;29.00;99.70
52451;DHT22;38366;53.176;6.540;2022-08-11T08:35:28;28.90;99.30
52451;DHT22;38366;53.176;6.540;2022-08-11T08:37:57;29.10;98.40
52451;DHT22;38366;53.176;6.540;2022-08-11T08:40:25;29.30;98.90
52451;DHT22;38366;53.176;6.540;2022-08-11T08:42:56;29.40;98.10
52451;DHT22;38366;53.176;6.540;2022-08-11T08:45:24;29.70;98.30
52451;DHT22;38366;53.176;6.540;2022-08-11T08:48:01;29.80;98.50
52451;DHT22;38366;53.176;6.540;2022-08-11T08:50:43;29.90;97.60
52451;DHT22;38366;53.176;6.540;2022-08-11T08:53:31;30.30;97.50
52451;DHT22;38366;53.176;6.540;2022-08-11T08:55:59;30.40;97.30
52451;DHT22;38366;53.176;6.540;2022-08-11T08:58:26;30.50;97.10
52451;DHT22;38366;53.176;6.540;2022-08-11T09:00:55;30.70;97.70
52451;DHT22;38366;53.176;6.540;2022-08-11T09:03:21;30.70;96.90
52451;DHT22;38366;53.176;6.540;2022-08-11T09:05:47;31.00;97.30
52451;DHT22;38366;53.176;6.540;2022-08-11T09:08:17;31.10;96.50
52451;DHT22;38366;53.176;6.540;2022-08-11T09:10:46;30.90;96.30
52451;DHT22;38366;53.176;6.540;2022-08-11T09:13:33;31.40;96.80
52451;DHT22;38366;53.176;6.540;2022-08-11T09:16:01;31.30;95.30
52451;DHT22;38366;53.176;6.540;2022-08-11T09:18:27;31.80;95.30
52451;DHT22;38366;53.176;6.540;2022-08-11T09:20:54;32.00;95.40
52451;DHT22;38366;53.176;6.540;2022-08-11T09:23:21;32.20;94.50
52451;DHT22;38366;53.176;6.540;2022-08-11T09:26:05;32.30;94.60
52451;DHT22;38366;53.176;6.540;2022-08-11T09:28:51;32.50;94.50
52451;DHT22;38366;53.176;6.540;2022-08-11T09:31:17;32.40;93.80
52451;DHT22;38366;53.176;6.540;2022-08-11T09:33:44;32.60;94.10
52451;DHT22;38366;53.176;6.540;2022-08-11T09:36:13;32.80;94.30
52451;DHT22;38366;53.176;6.540;2022-08-11T09:38:59;32.90;93.80
52451;DHT22;38366;53.176;6.540;2022-08-11T09:41:45;33.00;93.60
52451;DHT22;38366;53.176;6.540;2022-08-11T09:44:11;33.30;93.40
52451;DHT22;38366;53.176;6.540;2022-08-11T09:46:57;33.40;92.20
52451;DHT22;38366;53.176;6.540;2022-08-11T09:49:26;33.50;92.30
52451;DHT22;38366;53.176;6.540;2022-08-11T09:51:53;33.80;92.40
52451;DHT22;38366;53.176;6.540;2022-08-11T09:54:22;33.90;91.90
52451;DHT22;38366;53.176;6.540;2022-08-11T09:56:52;34.00;91.60
52451;DHT22;38366;53.176;6.540;2022-08-11T09:59:36;34.00;92.20
52451;DHT22;38366;53.176;6.540;2022-08-11T10:02:03;34.20;91.40
52451;DHT22;38366;53.176;6.540;2022-08-11T10:04:34;34.20;90.50
52451;DHT22;38366;53.176;6.540;2022-08-11T10:07:05;34.50;90.40
52451;DHT22;38366;53.176;6.540;2022-08-11T10:12:24;34.80;88.80
52451;DHT22;38366;53.176;6.540;2022-08-11T10:15:07;34.70;87.00
52451;DHT22;38366;53.176;6.540;2022-08-11T10:17:57;34.70;87.30
52451;DHT22;38366;53.176;6.540;2022-08-11T10:20:44;34.80;85.90
52451;DHT22;38366;53.176;6.540;2022-08-11T10:23:12;35.10;86.20
52451;DHT22;38366;53.176;6.540;2022-08-11T10:25:57;35.40;85.90
52451;DHT22;38366;53.176;6.540;2022-08-11T10:28:42;35.50;85.80
52451;DHT22;38366;53.176;6.540;2022-08-11T10:31:08;35.30;85.90
52451;DHT22;38366;53.176;6.540;2022-08-11T10:34:10;35.30;85.10
52451;DHT22;38366;53.176;6.540;2022-08-11T10:36:39;35.10;84.70
52451;DHT22;38366;53.176;6.540;2022-08-11T10:39:12;35.00;85.10
52451;DHT22;38366;53.176;6.540;2022-08-11T10:41:46;35.40;85.30
52451;DHT22;38366;53.176;6.540;2022-08-11T10:44:42;36.00;85.10
52451;DHT22;38366;53.176;6.540;2022-08-11T10:47:11;36.20;85.20
52451;DHT22;38366;53.176;6.540;2022-08-11T10:49:57;36.40;84.30
52451;DHT22;38366;53.176;6.540;2022-08-11T10:52:43;36.20;83.90
52451;DHT22;38366;53.176;6.540;2022-08-11T10:55:30;35.60;82.70
52451;DHT22;38366;53.176;6.540;2022-08-11T10:58:15;35.70;83.90
52451;DHT22;38366;53.176;6.540;2022-08-11T11:01:00;36.20;83.80
52451;DHT22;38366;53.176;6.540;2022-08-11T11:03:29;36.20;83.20
52451;DHT22;38366;53.176;6.540;2022-08-11T11:06:35;36.70;82.40
52451;DHT22;38366;53.176;6.540;2022-08-11T11:09:26;36.00;82.20
52451;DHT22;38366;53.176;6.540;2022-08-11T11:11:57;36.20;82.20
52451;DHT22;38366;53.176;6.540;2022-08-11T11:14:43;36.40;82.60
52451;DHT22;38366;53.176;6.540;2022-08-11T11:17:36;36.10;80.60
52451;DHT22;38366;53.176;6.540;2022-08-11T11:23:53;36.40;80.70
52451;DHT22;38366;53.176;6.540;2022-08-11T11:26:50;36.60;80.80
52451;DHT22;38366;53.176;6.540;2022-08-11T11:37:31;36.60;78.50
52451;DHT22;38366;53.176;6.540;2022-08-11T11:39:58;36.70;78.90
52451;DHT22;38366;53.176;6.540;2022-08-11T11:42:24;37.10;79.50
52451;DHT22;38366;53.176;6.540;2022-08-11T11:44:51;37.20;79.60
52451;DHT22;38366;53.176;6.540;2022-08-11T11:47:17;37.00;78.50
52451;DHT22;38366;53.176;6.540;2022-08-11T11:49:44;37.10;78.50
52451;DHT22;38366;53.176;6.540;2022-08-11T11:52:15;36.90;78.70
52451;DHT22;38366;53.176;6.540;2022-08-11T11:54:50;36.40;77.90
52451;DHT22;38366;53.176;6.540;2022-08-11T11:57:19;36.50;78.30
52451;DHT22;38366;53.176;6.540;2022-08-11T12:00:06;36.60;78.50
52451;DHT22;38366;53.176;6.540;2022-08-11T12:02:51;37.10;78.60
52451;DHT22;38366;53.176;6.540;2022-08-11T12:05:18;36.70;78.30
52451;DHT22;38366;53.176;6.540;2022-08-11T12:07:44;36.80;78.50
52451;DHT22;38366;53.176;6.540;2022-08-11T12:10:30;37.20;78.30
52451;DHT22;38366;53.176;6.540;2022-08-11T12:12:58;37.40;77.30
52451;DHT22;38366;53.176;6.540;2022-08-11T12:15:46;37.60;76.70
52451;DHT22;38366;53.176;6.540;2022-08-11T12:18:12;37.80;77.40
52451;DHT22;38366;53.176;6.540;2022-08-11T12:20:38;37.80;77.50
52451;DHT22;38366;53.176;6.540;2022-08-11T12:23:05;37.70;77.80
52451;DHT22;38366;53.176;6.540;2022-08-11T12:25:50;37.90;77.10
52451;DHT22;38366;53.176;6.540;2022-08-11T12:28:34;37.50;75.60
52451;DHT22;38366;53.176;6.540;2022-08-11T12:31:00;37.40;75.90
52451;DHT22;38366;53.176;6.540;2022-08-11T12:33:27;37.30;77.00
52451;DHT22;38366;53.176;6.540;2022-08-11T12:35:57;37.00;75.50
52451;DHT22;38366;53.176;6.540;2022-08-11T12:38:24;37.40;76.20
52451;DHT22;38366;53.176;6.540;2022-08-11T12:40:52;37.60;75.90
52451;DHT22;38366;53.176;6.540;2022-08-11T12:43:37;37.80;76.60
52451;DHT22;38366;53.176;6.540;2022-08-11T12:46:32;37.20;77.20
52451;DHT22;38366;53.176;6.540;2022-08-11T12:49:18;37.10;77.80
52451;DHT22;38366;53.176;6.540;2022-08-11T12:52:06;37.30;77.60
52451;DHT22;38366;53.176;6.540;2022-08-11T12:54:47;36.80;77.30
52451;DHT22;38366;53.176;6.540;2022-08-11T12:57:24;36.50;77.20
52451;DHT22;38366;53.176;6.540;2022-08-11T13:00:10;36.60;75.70
52451;DHT22;38366;53.176;6.540;2022-08-11T13:02:55;36.30;76.80
52451;DHT22;38366;53.176;6.540;2022-08-11T13:05:43;36.40;77.10
52451;DHT22;38366;53.176;6.540;2022-08-11T13:08:11;36.90;77.90
52451;DHT22;38366;53.176;6.540;2022-08-11T13:10:40;37.10;78.40
52451;DHT22;38366;53.176;6.540;2022-08-11T13:13:29;37.10;77.20
52451;DHT22;38366;53.176;6.540;2022-08-11T13:15:56;37.10;77.40
52451;DHT22;38366;53.176;6.540;2022-08-11T13:18:22;36.90;77.50
52451;DHT22;38366;53.176;6.540;2022-08-11T13:20:52;36.80;76.80
52451;DHT22;38366;53.176;6.540;2022-08-11T13:23:19;36.60;76.50
52451;DHT22;38366;53.176;6.540;2022-08-11T13:25:45;36.70;77.60
52451;DHT22;38366;53.176;6.540;2022-08-11T13:28:11;36.90;78.10
52451;DHT22;38366;53.176;6.540;2022-08-11T13:30:38;36.90;76.20
52451;DHT22;38366;53.176;6.540;2022-08-11T13:33:24;36.50;77.20
52451;DHT22;38366;53.176;6.540;2022-08-11T13:35:53;36.80;77.10
52451;DHT22;38366;53.176;6.540;2022-08-11T13:38:20;36.70;76.80
52451;DHT22;38366;53.176;6.540;2022-08-11T13:40:48;36.50;77.90
52451;DHT22;38366;53.176;6.540;2022-08-11T13:43:14;36.50;76.80
52451;DHT22;38366;53.176;6.540;2022-08-11T13:45:41;36.70;77.70
52451;DHT22;38366;53.176;6.540;2022-08-11T13:48:08;36.40;77.00
52451;DHT22;38366;53.176;6.540;2022-08-11T13:50:35;36.40;77.20
52451;DHT22;38366;53.176;6.540;2022-08-11T13:53:22;36.40;76.90
52451;DHT22;38366;53.176;6.540;2022-08-11T13:55:49;36.10;76.90
52451;DHT22;38366;53.176;6.540;2022-08-11T13:58:15;35.70;77.80
52451;DHT22;38366;53.176;6.540;2022-08-11T14:00:47;34.70;76.40
52451;DHT22;38366;53.176;6.540;2022-08-11T14:03:13;34.80;77.90
52451;DHT22;38366;53.176;6.540;2022-08-11T14:05:46;34.70;78.00
52451;DHT22;38366;53.176;6.540;2022-08-11T14:08:16;34.50;77.80
52451;DHT22;38366;53.176;6.540;2022-08-11T14:10:44;34.30;77.50
52451;DHT22;38366;53.176;6.540;2022-08-11T14:13:14;34.00;78.00
52451;DHT22;38366;53.176;6.540;2022-08-11T14:16:11;34.00;78.40
52451;DHT22;38366;53.176;6.540;2022-08-11T14:18:42;33.70;77.70
52451;DHT22;38366;53.176;6.540;2022-08-11T14:21:13;33.90;78.70
52451;DHT22;38366;53.176;6.540;2022-08-11T14:23:58;33.90;78.60
52451;DHT22;38366;53.176;6.540;2022-08-11T14:26:25;33.80;78.40
52451;DHT22;38366;53.176;6.540;2022-08-11T14:29:04;33.70;79.20
52451;DHT22;38366;53.176;6.540;2022-08-11T14:31:31;33.10;78.00
52451;DHT22;38366;53.176;6.540;2022-08-11T14:34:01;33.20;78.90
52451;DHT22;38366;53.176;6.540;2022-08-11T14:36:35;33.00;78.70
52451;DHT22;38366;53.176;6.540;2022-08-11T14:39:08;32.90;78.90
52451;DHT22;38366;53.176;6.540;2022-08-11T14:41:44;32.90;78.60
52451;DHT22;38366;53.176;6.540;2022-08-11T14:44:31;33.10;79.30
52451;DHT22;38366;53.176;6.540;2022-08-11T14:47:17;33.00;79.00
52451;DHT22;38366;53.176;6.540;2022-08-11T14:49:43;32.90;79.30
52451;DHT22;38366;53.176;6.540;2022-08-11T14:52:16;32.90;79.50
52451;DHT22;38366;53.176;6.540;2022-08-11T14:54:45;32.70;80.20
52451;DHT22;38366;53.176;6.540;2022-08-11T14:57:34;32.60;79.10
52451;DHT22;38366;53.176;6.540;2022-08-11T15:00:02;32.40;79.10
52451;DHT22;38366;53.176;6.540;2022-08-11T15:02:29;32.10;80.30
52451;DHT22;38366;53.176;6.540;2022-08-11T15:05:14;31.80;81.60
52451;DHT22;38366;53.176;6.540;2022-08-11T15:07:40;31.90;82.20
52451;DHT22;38366;53.176;6.540;2022-08-11T15:10:08;32.00;82.20
52451;DHT22;38366;53.176;6.540;2022-08-11T15:12:35;32.10;82.00
52451;DHT22;38366;53.176;6.540;2022-08-11T15:15:04;32.10;81.70
52451;DHT22;38366;53.176;6.540;2022-08-11T15:17:50;32.00;81.70
52451;DHT22;38366;53.176;6.540;2022-08-11T15:20:19;32.10;82.10
52451;DHT22;38366;53.176;6.540;2022-08-11T15:23:04;32.10;82.10
52451;DHT22;38366;53.176;6.540;2022-08-11T15:26:22;31.90;81.20
52451;DHT22;38366;53.176;6.540;2022-08-11T15:29:13;32.00;83.10
52451;DHT22;38366;53.176;6.540;2022-08-11T15:31:58;31.90;82.10
52451;DHT22;38366;53.176;6.540;2022-08-11T15:34:48;32.00;81.80
52451;DHT22;38366;53.176;6.540;2022-08-11T15:37:35;31.80;80.80
52451;DHT22;38366;53.176;6.540;2022-08-11T15:43:01;31.60;82.20
52451;DHT22;38366;53.176;6.540;2022-08-11T15:45:49;31.50;82.20
52451;DHT22;38366;53.176;6.540;2022-08-11T15:50:53;31.10;83.40
52451;DHT22;38366;53.176;6.540;2022-08-11T15:55:53;30.90;83.80
52451;DHT22;38366;53.176;6.540;2022-08-11T15:58:19;30.90;84.00
52451;DHT22;38366;53.176;6.540;2022-08-11T16:01:04;30.90;84.60
52451;DHT22;38366;53.176;6.540;2022-08-11T16:03:54;30.80;84.70
52451;DHT22;38366;53.176;6.540;2022-08-11T16:07:00;30.60;84.60
52451;DHT22;38366;53.176;6.540;2022-08-11T16:12:10;30.30;85.00
52451;DHT22;38366;53.176;6.540;2022-08-11T16:14:39;30.30;85.60
52451;DHT22;38366;53.176;6.540;2022-08-11T16:17:27;30.30;85.50
52451;DHT22;38366;53.176;6.540;2022-08-11T16:19:56;30.00;85.60
52451;DHT22;38366;53.176;6.540;2022-08-11T16:22:28;30.00;86.00
52451;DHT22;38366;53.176;6.540;2022-08-11T16:25:09;30.00;85.90
52451;DHT22;38366;53.176;6.540;2022-08-11T16:27:41;29.90;86.10
52451;DHT22;38366;53.176;6.540;2022-08-11T16:30:08;29.70;85.80
52451;DHT22;38366;53.176;6.540;2022-08-11T16:32:37;29.60;86.10
52451;DHT22;38366;53.176;6.540;2022-08-11T16:35:10;29.60;86.30
52451;DHT22;38366;53.176;6.540;2022-08-11T16:37:56;29.60;86.90
52451;DHT22;38366;53.176;6.540;2022-08-11T16:40:42;29.60;86.50
52451;DHT22;38366;53.176;6.540;2022-08-11T16:43:12;29.40;87.20
52451;DHT22;38366;53.176;6.540;2022-08-11T16:45:58;29.50;86.70
52451;DHT22;38366;53.176;6.540;2022-08-11T16:48:44;29.30;87.30
52451;DHT22;38366;53.176;6.540;2022-08-11T16:51:11;29.10;87.40
52451;DHT22;38366;53.176;6.540;2022-08-11T16:53:38;29.00;87.80
52451;DHT22;38366;53.176;6.540;2022-08-11T16:56:05;28.90;87.80
52451;DHT22;38366;53.176;6.540;2022-08-11T16:58:34;29.00;87.60
52451;DHT22;38366;53.176;6.540;2022-08-11T17:01:21;29.00;88.40
52451;DHT22;38366;53.176;6.540;2022-08-11T17:04:00;28.80;88.20
52451;DHT22;38366;53.176;6.540;2022-08-11T17:06:46;28.80;88.50
52451;DHT22;38366;53.176;6.540;2022-08-11T17:09:34;28.70;88.90
52451;DHT22;38366;53.176;6.540;2022-08-11T17:12:27;28.70;89.00
52451;DHT22;38366;53.176;6.540;2022-08-11T17:15:16;28.70;89.30
52451;DHT22;38366;53.176;6.540;2022-08-11T17:18:02;28.70;89.40
52451;DHT22;38366;53.176;6.540;2022-08-11T17:20:30;28.70;89.30
52451;DHT22;38366;53.176;6.540;2022-08-11T17:22:56;28.80;89.40
52451;DHT22;38366;53.176;6.540;2022-08-11T17:25:42;28.70;89.50
52451;DHT22;38366;53.176;6.540;2022-08-11T17:28:10;28.70;89.90
52451;DHT22;38366;53.176;6.540;2022-08-11T17:30:38;28.70;90.00
52451;DHT22;38366;53.176;6.540;2022-08-11T17:33:24;28.50;90.10
52451;DHT22;38366;53.176;6.540;2022-08-11T17:36:09;28.30;90.30
52451;DHT22;38366;53.176;6.540;2022-08-11T17:38:37;28.10;90.40
52451;DHT22;38366;53.176;6.540;2022-08-11T17:41:04;28.10;90.60
52451;DHT22;38366;53.176;6.540;2022-08-11T17:43:51;28.10;90.50
52451;DHT22;38366;53.176;6.540;2022-08-11T17:46:38;28.20;90.60
52451;DHT22;38366;53.176;6.540;2022-08-11T17:49:40;28.10;90.70
52451;DHT22;38366;53.176;6.540;2022-08-11T17:52:06;28.00;90.70
52451;DHT22;38366;53.176;6.540;2022-08-11T17:54:56;28.00;91.00
52451;DHT22;38366;53.176;6.540;2022-08-11T17:57:42;28.00;90.80
52451;DHT22;38366;53.176;6.540;2022-08-11T18:00:27;27.80;90.70
52451;DHT22;38366;53.176;6.540;2022-08-11T18:02:54;27.70;90.70
52451;DHT22;38366;53.176;6.540;2022-08-11T18:05:42;27.70;90.80
52451;DHT22;38366;53.176;6.540;2022-08-11T18:08:11;27.50;90.90
52451;DHT22;38366;53.176;6.540;2022-08-11T18:10:57;27.50;91.00
52451;DHT22;38366;53.176;6.540;2022-08-11T18:13:43;27.50;91.00
52451;DHT22;38366;53.176;6.540;2022-08-11T18:16:28;27.40;90.90
52451;DHT22;38366;53.176;6.540;2022-08-11T18:19:12;27.50;90.90
52451;DHT22;38366;53.176;6.540;2022-08-11T18:22:05;27.40;91.00
52451;DHT22;38366;53.176;6.540;2022-08-11T18:24:57;27.30;91.10
52451;DHT22;38366;53.176;6.540;2022-08-11T18:27:45;27.30;91.20
52451;DHT22;38366;53.176;6.540;2022-08-11T18:30:35;27.20;91.20
52451;DHT22;38366;53.176;6.540;2022-08-11T18:33:25;27.20;91.20
52451;DHT22;38366;53.176;6.540;2022-08-11T18:36:11;27.20;91.20
52451;DHT22;38366;53.176;6.540;2022-08-11T18:38:57;26.90;91.40
52451;DHT22;38366;53.176;6.540;2022-08-11T18:41:44;26.90;91.40
52451;DHT22;38366;53.176;6.540;2022-08-11T18:44:31;26.90;91.50
52451;DHT22;38366;53.176;6.540;2022-08-11T18:47:19;26.80;91.50
52451;DHT22;38366;53.176;6.540;2022-08-11T18:50:08;26.80;91.60
52451;DHT22;38366;53.176;6.540;2022-08-11T18:52:55;26.60;91.80
52451;DHT22;38366;53.176;6.540;2022-08-11T18:55:42;26.60;91.80
52451;DHT22;38366;53.176;6.540;2022-08-11T18:58:39;26.60;91.90
52451;DHT22;38366;53.176;6.540;2022-08-11T19:01:25;26.50;92.00
52451;DHT22;38366;53.176;6.540;2022-08-11T19:04:11;26.40;92.00
52451;DHT22;38366;53.176;6.540;2022-08-11T19:06:57;26.30;92.10
52451;DHT22;38366;53.176;6.540;2022-08-11T19:09:44;26.20;92.00
52451;DHT22;38366;53.176;6.540;2022-08-11T19:12:36;26.20;92.10
52451;DHT22;38366;53.176;6.540;2022-08-11T19:15:21;26.20;92.30
52451;DHT22;38366;53.176;6.540;2022-08-11T19:18:18;26.00;92.40
52451;DHT22;38366;53.176;6.540;2022-08-11T19:21:05;25.90;92.50
52451;DHT22;38366;53.176;6.540;2022-08-11T19:23:53;26.00;92.50
52451;DHT22;38366;53.176;6.540;2022-08-11T19:26:38;25.90;92.60
52451;DHT22;38366;53.176;6.540;2022-08-11T19:29:25;25.80;92.90
52451;DHT22;38366;53.176;6.540;2022-08-11T19:32:12;25.70;93.40
52451;DHT22;38366;53.176;6.540;2022-08-11T19:35:00;25.60;93.20
52451;DHT22;38366;53.176;6.540;2022-08-11T19:37:47;25.50;93.60
52451;DHT22;38366;53.176;6.540;2022-08-11T19:40:33;25.30;93.50
52451;DHT22;38366;53.176;6.540;2022-08-11T19:43:25;25.30;93.30
52451;DHT22;38366;53.176;6.540;2022-08-11T19:46:12;25.30;93.50
52451;DHT22;38366;53.176;6.540;2022-08-11T19:48:58;25.20;93.70
52451;DHT22;38366;53.176;6.540;2022-08-11T19:51:44;25.30;93.70
52451;DHT22;38366;53.176;6.540;2022-08-11T19:54:32;25.20;93.70
52451;DHT22;38366;53.176;6.540;2022-08-11T19:57:21;25.10;93.80
52451;DHT22;38366;53.176;6.540;2022-08-11T20:00:10;25.00;94.00
52451;DHT22;38366;53.176;6.540;2022-08-11T20:03:00;25.00;94.20
52451;DHT22;38366;53.176;6.540;2022-08-11T20:05:46;24.90;94.00
52451;DHT22;38366;53.176;6.540;2022-08-11T20:08:31;24.90;94.20
52451;DHT22;38366;53.176;6.540;2022-08-11T20:11:17;24.80;94.30
52451;DHT22;38366;53.176;6.540;2022-08-11T20:14:02;24.70;94.50
52451;DHT22;38366;53.176;6.540;2022-08-11T20:16:48;24.70;94.40